sensor_id;sensor_type;location;lat;lon;timestamp;P1;durP1;ratioP1;P2;durP2;ratioP2
19944;SDS011;10134;50.952;6.930;2023-04-03T00:00:56;6.17;;;3.47;;
19944;SDS011;10134;50.952;6.930;2023-04-03T00:03:24;5.27;;;3.30;;
19944;SDS011;10134;50.952;6.930;2023-04-03T00:05:51;4.83;;;3.80;;
19944;SDS011;10134;50.952;6.930;2023-04-03T00:08:18;8.23;;;3.97;;
19944;SDS011;10134;50.952;6.930;2023-04-03T00:10:46;5.93;;;4.30;;
19944;SDS011;10134;50.952;6.930;2023-04-03T00:13:14;4.73;;;3.60;;
19944;SDS011;10134;50.952;6.930;2023-04-03T00:15:42;3.67;;;3.03;;
19944;SDS011;10134;50.952;6.930;2023-04-03T00:18:09;5.93;;;4.03;;
19944;SDS011;10134;50.952;6.930;2023-04-03T00:20:37;5.50;;;3.93;;
19944;SDS011;10134;50.952;6.930;2023-04-03T00:23:04;6.43;;;4.00;;
19944;SDS011;10134;50.952;6.930;2023-04-03T00:25:32;7.77;;;4.20;;
19944;SDS011;10134;50.952;6.930;2023-04-03T00:28:00;6.40;;;3.90;;
19944;SDS011;10134;50.952;6.930;2023-04-03T00:30:27;6.47;;;3.63;;
19944;SDS011;10134;50.952;6.930;2023-04-03T00:32:55;4.80;;;4.10;;
19944;SDS011;10134;50.952;6.930;2023-04-03T00:35:22;5.60;;;3.63;;
19944;SDS011;10134;50.952;6.930;2023-04-03T00:37:51;7.10;;;4.13;;
19944;SDS011;10134;50.952;6.930;2023-04-03T00:40:21;5.77;;;3.87;;
19944;SDS011;10134;50.952;6.930;2023-04-03T00:42:55;6.30;;;4.00;;
19944;SDS011;10134;50.952;6.930;2023-04-03T00:48:04;7.20;;;3.80;;
19944;SDS011;10134;50.952;6.930;2023-04-03T00:50:34;6.70;;;4.00;;
19944;SDS011;10134;50.952;6.930;2023-04-03T00:53:05;8.00;;;4.50;;
19944;SDS011;10134;50.952;6.930;2023-04-03T00:55:35;7.03;;;4.10;;
19944;SDS011;10134;50.952;6.930;2023-04-03T00:58:04;6.30;;;4.53;;
19944;SDS011;10134;50.952;6.930;2023-04-03T01:00:34;4.93;;;3.47;;
19944;SDS011;10134;50.952;6.930;2023-04-03T01:03:05;4.97;;;3.20;;
19944;SDS011;10134;50.952;6.930;2023-04-03T01:05:32;4.73;;;3.60;;
19944;SDS011;10134;50.952;6.930;2023-04-03T01:08:00;5.93;;;3.80;;
19944;SDS011;10134;50.952;6.930;2023-04-03T01:10:28;6.70;;;3.30;;
19944;SDS011;10134;50.952;6.930;2023-04-03T01:12:57;5.53;;;3.50;;
19944;SDS011;10134;50.952;6.930;2023-04-03T01:15:27;5.03;;;3.47;;
19944;SDS011;10134;50.952;6.930;2023-04-03T01:18:01;7.37;;;3.80;;
19944;SDS011;10134;50.952;6.930;2023-04-03T01:25:38;7.67;;;3.00;;
19944;SDS011;10134;50.952;6.930;2023-04-03T01:28:09;4.40;;;3.30;;
19944;SDS011;10134;50.952;6.930;2023-04-03T01:31:00;5.27;;;3.10;;
19944;SDS011;10134;50.952;6.930;2023-04-03T01:33:27;5.80;;;3.10;;
19944;SDS011;10134;50.952;6.930;2023-04-03T01:35:54;5.90;;;3.50;;
19944;SDS011;10134;50.952;6.930;2023-04-03T01:38:22;3.53;;;2.80;;
19944;SDS011;10134;50.952;6.930;2023-04-03T01:40:49;4.50;;;3.27;;
19944;SDS011;10134;50.952;6.930;2023-04-03T01:43:17;5.17;;;3.37;;
19944;SDS011;10134;50.952;6.930;2023-04-03T01:45:45;5.33;;;3.17;;
19944;SDS011;10134;50.952;6.930;2023-04-03T01:48:13;5.43;;;3.43;;
19944;SDS011;10134;50.952;6.930;2023-04-03T01:50:45;5.03;;;3.13;;
19944;SDS011;10134;50.952;6.930;2023-04-03T01:53:13;6.20;;;3.47;;
19944;SDS011;10134;50.952;6.930;2023-04-03T01:55:41;5.67;;;3.97;;
19944;SDS011;10134;50.952;6.930;2023-04-03T01:58:08;9.10;;;3.73;;
19944;SDS011;10134;50.952;6.930;2023-04-03T02:00:36;4.43;;;3.13;;
19944;SDS011;10134;50.952;6.930;2023-04-03T02:03:04;3.43;;;2.73;;
19944;SDS011;10134;50.952;6.930;2023-04-03T02:05:31;5.80;;;3.63;;
19944;SDS011;10134;50.952;6.930;2023-04-03T02:07:59;7.57;;;4.17;;
19944;SDS011;10134;50.952;6.930;2023-04-03T02:10:28;6.57;;;3.40;;
19944;SDS011;10134;50.952;6.930;2023-04-03T02:12:56;5.17;;;3.87;;
19944;SDS011;10134;50.952;6.930;2023-04-03T02:15:24;4.23;;;3.70;;
19944;SDS011;10134;50.952;6.930;2023-04-03T02:17:52;6.43;;;3.30;;
19944;SDS011;10134;50.952;6.930;2023-04-03T02:20:20;6.33;;;3.57;;
19944;SDS011;10134;50.952;6.930;2023-04-03T02:22:47;6.57;;;4.40;;
19944;SDS011;10134;50.952;6.930;2023-04-03T02:25:15;9.67;;;4.43;;
19944;SDS011;10134;50.952;6.930;2023-04-03T02:27:42;5.17;;;3.57;;
19944;SDS011;10134;50.952;6.930;2023-04-03T02:30:09;6.87;;;4.07;;
19944;SDS011;10134;50.952;6.930;2023-04-03T02:32:37;5.73;;;4.43;;
19944;SDS011;10134;50.952;6.930;2023-04-03T02:35:05;7.30;;;3.80;;
19944;SDS011;10134;50.952;6.930;2023-04-03T02:37:32;6.77;;;3.80;;
19944;SDS011;10134;50.952;6.930;2023-04-03T02:40:00;5.60;;;4.00;;
19944;SDS011;10134;50.952;6.930;2023-04-03T02:42:28;4.20;;;3.80;;
19944;SDS011;10134;50.952;6.930;2023-04-03T02:44:55;5.47;;;3.70;;
19944;SDS011;10134;50.952;6.930;2023-04-03T02:47:25;7.00;;;3.87;;
19944;SDS011;10134;50.952;6.930;2023-04-03T02:49:53;8.00;;;4.10;;
19944;SDS011;10134;50.952;6.930;2023-04-03T02:52:21;5.73;;;4.00;;
19944;SDS011;10134;50.952;6.930;2023-04-03T02:54:49;6.53;;;3.97;;
19944;SDS011;10134;50.952;6.930;2023-04-03T02:57:17;9.67;;;4.53;;
19944;SDS011;10134;50.952;6.930;2023-04-03T02:59:46;6.30;;;4.10;;
19944;SDS011;10134;50.952;6.930;2023-04-03T03:02:13;5.00;;;3.60;;
19944;SDS011;10134;50.952;6.930;2023-04-03T03:04:41;8.03;;;4.30;;
19944;SDS011;10134;50.952;6.930;2023-04-03T03:07:09;4.83;;;3.83;;
19944;SDS011;10134;50.952;6.930;2023-04-03T03:09:37;5.67;;;4.07;;
19944;SDS011;10134;50.952;6.930;2023-04-03T03:12:04;4.77;;;3.57;;
19944;SDS011;10134;50.952;6.930;2023-04-03T03:14:32;4.63;;;3.70;;
19944;SDS011;10134;50.952;6.930;2023-04-03T03:16:59;4.10;;;3.37;;
19944;SDS011;10134;50.952;6.930;2023-04-03T03:19:26;7.00;;;4.60;;
19944;SDS011;10134;50.952;6.930;2023-04-03T03:21:54;4.67;;;3.63;;
19944;SDS011;10134;50.952;6.930;2023-04-03T03:24:22;6.03;;;3.50;;
19944;SDS011;10134;50.952;6.930;2023-04-03T03:26:49;4.07;;;3.17;;
19944;SDS011;10134;50.952;6.930;2023-04-03T03:29:16;6.53;;;3.67;;
19944;SDS011;10134;50.952;6.930;2023-04-03T03:31:44;4.13;;;3.47;;
19944;SDS011;10134;50.952;6.930;2023-04-03T03:34:12;5.07;;;3.57;;
19944;SDS011;10134;50.952;6.930;2023-04-03T03:36:39;4.93;;;2.70;;
19944;SDS011;10134;50.952;6.930;2023-04-03T03:39:08;6.10;;;3.30;;
19944;SDS011;10134;50.952;6.930;2023-04-03T03:41:35;5.83;;;3.10;;
19944;SDS011;10134;50.952;6.930;2023-04-03T03:44:03;3.40;;;2.83;;
19944;SDS011;10134;50.952;6.930;2023-04-03T03:46:32;7.43;;;2.57;;
19944;SDS011;10134;50.952;6.930;2023-04-03T03:48:59;7.17;;;3.10;;
19944;SDS011;10134;50.952;6.930;2023-04-03T03:51:27;3.97;;;2.87;;
19944;SDS011;10134;50.952;6.930;2023-04-03T03:53:55;3.43;;;2.93;;
19944;SDS011;10134;50.952;6.930;2023-04-03T03:56:23;4.23;;;3.17;;
19944;SDS011;10134;50.952;6.930;2023-04-03T03:58:51;3.93;;;2.87;;
19944;SDS011;10134;50.952;6.930;2023-04-03T04:01:20;3.37;;;2.77;;
19944;SDS011;10134;50.952;6.930;2023-04-03T04:03:49;4.60;;;2.97;;
19944;SDS011;10134;50.952;6.930;2023-04-03T04:06:20;6.83;;;3.07;;
19944;SDS011;10134;50.952;6.930;2023-04-03T04:08:48;9.50;;;4.07;;
19944;SDS011;10134;50.952;6.930;2023-04-03T04:11:16;5.80;;;3.63;;
19944;SDS011;10134;50.952;6.930;2023-04-03T04:13:45;4.97;;;2.87;;
19944;SDS011;10134;50.952;6.930;2023-04-03T04:16:15;4.43;;;3.47;;
19944;SDS011;10134;50.952;6.930;2023-04-03T04:18:43;6.53;;;3.23;;
19944;SDS011;10134;50.952;6.930;2023-04-03T04:21:10;2.83;;;2.17;;
19944;SDS011;10134;50.952;6.930;2023-04-03T04:23:38;5.47;;;3.43;;
19944;SDS011;10134;50.952;6.930;2023-04-03T04:26:06;8.87;;;3.33;;
19944;SDS011;10134;50.952;6.930;2023-04-03T04:28:36;3.90;;;2.43;;
19944;SDS011;10134;50.952;6.930;2023-04-03T04:31:04;5.83;;;2.83;;
19944;SDS011;10134;50.952;6.930;2023-04-03T04:33:32;5.23;;;2.53;;
19944;SDS011;10134;50.952;6.930;2023-04-03T04:36:02;5.87;;;2.47;;
19944;SDS011;10134;50.952;6.930;2023-04-03T04:38:30;5.30;;;2.70;;
19944;SDS011;10134;50.952;6.930;2023-04-03T04:40:57;2.80;;;2.17;;
19944;SDS011;10134;50.952;6.930;2023-04-03T04:43:25;4.13;;;2.50;;
19944;SDS011;10134;50.952;6.930;2023-04-03T04:46:01;5.57;;;2.83;;
19944;SDS011;10134;50.952;6.930;2023-04-03T04:48:33;2.27;;;2.07;;
19944;SDS011;10134;50.952;6.930;2023-04-03T04:51:02;5.57;;;2.67;;
19944;SDS011;10134;50.952;6.930;2023-04-03T04:53:29;6.23;;;2.07;;
19944;SDS011;10134;50.952;6.930;2023-04-03T04:55:57;5.07;;;2.23;;
19944;SDS011;10134;50.952;6.930;2023-04-03T04:58:25;6.40;;;2.70;;
19944;SDS011;10134;50.952;6.930;2023-04-03T05:01:06;4.07;;;2.00;;
19944;SDS011;10134;50.952;6.930;2023-04-03T05:03:43;2.87;;;2.30;;
19944;SDS011;10134;50.952;6.930;2023-04-03T05:06:11;9.70;;;2.67;;
19944;SDS011;10134;50.952;6.930;2023-04-03T05:08:38;2.60;;;2.10;;
19944;SDS011;10134;50.952;6.930;2023-04-03T05:11:06;4.60;;;2.37;;
19944;SDS011;10134;50.952;6.930;2023-04-03T05:13:34;7.63;;;2.40;;
19944;SDS011;10134;50.952;6.930;2023-04-03T05:16:02;2.97;;;2.30;;
19944;SDS011;10134;50.952;6.930;2023-04-03T05:18:29;4.03;;;1.93;;
19944;SDS011;10134;50.952;6.930;2023-04-03T05:21:00;3.13;;;2.43;;
19944;SDS011;10134;50.952;6.930;2023-04-03T05:23:27;3.73;;;2.47;;
19944;SDS011;10134;50.952;6.930;2023-04-03T05:25:56;2.80;;;2.20;;
19944;SDS011;10134;50.952;6.930;2023-04-03T05:28:25;6.47;;;2.63;;
19944;SDS011;10134;50.952;6.930;2023-04-03T05:30:53;2.57;;;2.13;;
19944;SDS011;10134;50.952;6.930;2023-04-03T05:33:22;5.00;;;2.30;;
19944;SDS011;10134;50.952;6.930;2023-04-03T05:35:53;3.97;;;2.00;;
19944;SDS011;10134;50.952;6.930;2023-04-03T05:38:25;6.27;;;2.60;;
19944;SDS011;10134;50.952;6.930;2023-04-03T05:40:54;6.57;;;2.43;;
19944;SDS011;10134;50.952;6.930;2023-04-03T05:43:21;9.23;;;2.23;;
19944;SDS011;10134;50.952;6.930;2023-04-03T05:45:50;6.13;;;2.33;;
19944;SDS011;10134;50.952;6.930;2023-04-03T05:48:20;4.47;;;2.40;;
19944;SDS011;10134;50.952;6.930;2023-04-03T05:50:48;8.60;;;2.80;;
19944;SDS011;10134;50.952;6.930;2023-04-03T05:53:21;5.53;;;2.53;;
19944;SDS011;10134;50.952;6.930;2023-04-03T05:55:53;4.63;;;2.13;;
19944;SDS011;10134;50.952;6.930;2023-04-03T05:58:21;3.03;;;1.93;;
19944;SDS011;10134;50.952;6.930;2023-04-03T06:00:51;2.70;;;1.80;;
19944;SDS011;10134;50.952;6.930;2023-04-03T06:03:19;4.47;;;2.37;;
19944;SDS011;10134;50.952;6.930;2023-04-03T06:05:46;4.17;;;2.20;;
19944;SDS011;10134;50.952;6.930;2023-04-03T06:08:13;3.30;;;2.40;;
19944;SDS011;10134;50.952;6.930;2023-04-03T06:10:41;6.43;;;2.77;;
19944;SDS011;10134;50.952;6.930;2023-04-03T06:13:08;4.30;;;2.23;;
19944;SDS011;10134;50.952;6.930;2023-04-03T06:15:36;2.67;;;2.30;;
19944;SDS011;10134;50.952;6.930;2023-04-03T06:18:04;5.50;;;2.50;;
19944;SDS011;10134;50.952;6.930;2023-04-03T06:20:32;6.77;;;2.93;;
19944;SDS011;10134;50.952;6.930;2023-04-03T06:22:59;3.43;;;2.20;;
19944;SDS011;10134;50.952;6.930;2023-04-03T06:25:27;4.77;;;2.00;;
19944;SDS011;10134;50.952;6.930;2023-04-03T06:27:54;6.90;;;2.23;;
19944;SDS011;10134;50.952;6.930;2023-04-03T06:30:22;4.10;;;2.17;;
19944;SDS011;10134;50.952;6.930;2023-04-03T06:32:49;5.50;;;2.67;;
19944;SDS011;10134;50.952;6.930;2023-04-03T06:35:17;4.47;;;2.27;;
19944;SDS011;10134;50.952;6.930;2023-04-03T06:37:44;4.13;;;2.03;;
19944;SDS011;10134;50.952;6.930;2023-04-03T06:40:15;7.23;;;2.60;;
19944;SDS011;10134;50.952;6.930;2023-04-03T06:42:47;4.43;;;1.80;;
19944;SDS011;10134;50.952;6.930;2023-04-03T06:45:16;2.93;;;2.30;;
19944;SDS011;10134;50.952;6.930;2023-04-03T06:47:44;4.87;;;3.07;;
19944;SDS011;10134;50.952;6.930;2023-04-03T06:50:12;9.73;;;2.73;;
19944;SDS011;10134;50.952;6.930;2023-04-03T06:52:41;3.27;;;2.70;;
19944;SDS011;10134;50.952;6.930;2023-04-03T06:55:09;3.23;;;2.10;;
19944;SDS011;10134;50.952;6.930;2023-04-03T06:57:36;4.07;;;2.10;;
19944;SDS011;10134;50.952;6.930;2023-04-03T07:00:04;4.40;;;2.10;;
19944;SDS011;10134;50.952;6.930;2023-04-03T07:02:33;5.73;;;1.97;;
19944;SDS011;10134;50.952;6.930;2023-04-03T07:05:01;4.90;;;1.80;;
19944;SDS011;10134;50.952;6.930;2023-04-03T07:07:29;10.37;;;1.67;;
19944;SDS011;10134;50.952;6.930;2023-04-03T07:09:56;6.63;;;1.93;;
19944;SDS011;10134;50.952;6.930;2023-04-03T07:12:23;5.10;;;1.90;;
19944;SDS011;10134;50.952;6.930;2023-04-03T07:14:51;5.33;;;1.80;;
19944;SDS011;10134;50.952;6.930;2023-04-03T07:17:18;4.57;;;1.50;;
19944;SDS011;10134;50.952;6.930;2023-04-03T07:19:45;4.87;;;1.83;;
19944;SDS011;10134;50.952;6.930;2023-04-03T07:22:12;4.93;;;2.10;;
19944;SDS011;10134;50.952;6.930;2023-04-03T07:24:39;4.50;;;1.47;;
19944;SDS011;10134;50.952;6.930;2023-04-03T07:27:07;4.43;;;2.33;;
19944;SDS011;10134;50.952;6.930;2023-04-03T07:29:35;3.03;;;1.77;;
19944;SDS011;10134;50.952;6.930;2023-04-03T07:32:02;2.40;;;1.80;;
19944;SDS011;10134;50.952;6.930;2023-04-03T07:34:30;5.50;;;1.73;;
19944;SDS011;10134;50.952;6.930;2023-04-03T07:36:58;2.53;;;1.30;;
19944;SDS011;10134;50.952;6.930;2023-04-03T07:39:26;5.77;;;2.33;;
19944;SDS011;10134;50.952;6.930;2023-04-03T07:41:54;4.07;;;1.67;;
19944;SDS011;10134;50.952;6.930;2023-04-03T07:44:24;4.23;;;1.80;;
19944;SDS011;10134;50.952;6.930;2023-04-03T07:46:51;7.40;;;2.43;;
19944;SDS011;10134;50.952;6.930;2023-04-03T07:49:19;3.20;;;1.47;;
19944;SDS011;10134;50.952;6.930;2023-04-03T07:51:46;6.03;;;1.57;;
19944;SDS011;10134;50.952;6.930;2023-04-03T07:54:15;2.23;;;1.30;;
19944;SDS011;10134;50.952;6.930;2023-04-03T07:56:42;4.67;;;1.70;;
19944;SDS011;10134;50.952;6.930;2023-04-03T07:59:10;2.47;;;1.33;;
19944;SDS011;10134;50.952;6.930;2023-04-03T08:01:38;5.07;;;1.50;;
19944;SDS011;10134;50.952;6.930;2023-04-03T08:04:05;1.80;;;1.03;;
19944;SDS011;10134;50.952;6.930;2023-04-03T08:06:33;2.77;;;1.40;;
19944;SDS011;10134;50.952;6.930;2023-04-03T08:09:12;3.13;;;1.53;;
19944;SDS011;10134;50.952;6.930;2023-04-03T08:11:41;5.70;;;1.80;;
19944;SDS011;10134;50.952;6.930;2023-04-03T08:14:08;4.60;;;1.50;;
19944;SDS011;10134;50.952;6.930;2023-04-03T08:16:45;4.40;;;1.60;;
19944;SDS011;10134;50.952;6.930;2023-04-03T08:19:14;6.77;;;1.63;;
19944;SDS011;10134;50.952;6.930;2023-04-03T08:21:52;2.70;;;1.20;;
19944;SDS011;10134;50.952;6.930;2023-04-03T08:24:21;4.93;;;1.73;;
19944;SDS011;10134;50.952;6.930;2023-04-03T08:26:48;2.13;;;1.33;;
19944;SDS011;10134;50.952;6.930;2023-04-03T08:29:16;2.50;;;1.43;;
19944;SDS011;10134;50.952;6.930;2023-04-03T08:31:43;3.67;;;1.20;;
19944;SDS011;10134;50.952;6.930;2023-04-03T08:34:11;3.10;;;1.47;;
19944;SDS011;10134;50.952;6.930;2023-04-03T08:36:39;7.00;;;1.63;;
19944;SDS011;10134;50.952;6.930;2023-04-03T08:39:07;2.73;;;1.23;;
19944;SDS011;10134;50.952;6.930;2023-04-03T08:41:38;4.50;;;1.63;;
19944;SDS011;10134;50.952;6.930;2023-04-03T08:44:12;4.00;;;1.67;;
19944;SDS011;10134;50.952;6.930;2023-04-03T08:46:59;3.10;;;1.37;;
19944;SDS011;10134;50.952;6.930;2023-04-03T08:49:39;1.93;;;1.13;;
19944;SDS011;10134;50.952;6.930;2023-04-03T08:55:24;3.97;;;1.27;;
19944;SDS011;10134;50.952;6.930;2023-04-03T08:58:03;3.17;;;1.30;;
19944;SDS011;10134;50.952;6.930;2023-04-03T09:00:51;2.50;;;1.40;;
19944;SDS011;10134;50.952;6.930;2023-04-03T09:03:28;8.43;;;1.20;;
19944;SDS011;10134;50.952;6.930;2023-04-03T09:06:05;3.33;;;1.30;;
19944;SDS011;10134;50.952;6.930;2023-04-03T09:14:14;1.30;;;1.00;;
19944;SDS011;10134;50.952;6.930;2023-04-03T09:16:56;1.10;;;1.00;;
19944;SDS011;10134;50.952;6.930;2023-04-03T09:22:01;2.93;;;1.10;;
19944;SDS011;10134;50.952;6.930;2023-04-03T09:24:43;1.63;;;0.70;;
19944;SDS011;10134;50.952;6.930;2023-04-03T09:27:13;4.43;;;1.20;;
19944;SDS011;10134;50.952;6.930;2023-04-03T09:29:42;3.10;;;1.00;;
19944;SDS011;10134;50.952;6.930;2023-04-03T09:32:21;2.00;;;1.07;;
19944;SDS011;10134;50.952;6.930;2023-04-03T09:34:52;2.20;;;1.03;;
19944;SDS011;10134;50.952;6.930;2023-04-03T09:37:35;5.03;;;1.00;;
19944;SDS011;10134;50.952;6.930;2023-04-03T09:42:53;2.87;;;1.20;;
19944;SDS011;10134;50.952;6.930;2023-04-03T09:45:29;2.23;;;1.00;;
19944;SDS011;10134;50.952;6.930;2023-04-03T09:48:12;4.83;;;2.30;;
19944;SDS011;10134;50.952;6.930;2023-04-03T09:50:52;1.67;;;1.10;;
19944;SDS011;10134;50.952;6.930;2023-04-03T09:53:42;3.90;;;1.00;;
19944;SDS011;10134;50.952;6.930;2023-04-03T09:58:45;6.20;;;2.43;;
19944;SDS011;10134;50.952;6.930;2023-04-03T10:01:27;4.80;;;2.03;;
19944;SDS011;10134;50.952;6.930;2023-04-03T10:04:13;3.67;;;1.80;;
19944;SDS011;10134;50.952;6.930;2023-04-03T10:06:52;4.13;;;1.37;;
19944;SDS011;10134;50.952;6.930;2023-04-03T10:09:22;3.33;;;0.93;;
19944;SDS011;10134;50.952;6.930;2023-04-03T10:12:00;1.87;;;1.07;;
19944;SDS011;10134;50.952;6.930;2023-04-03T10:14:37;2.70;;;1.10;;
19944;SDS011;10134;50.952;6.930;2023-04-03T10:25:51;2.97;;;1.03;;
19944;SDS011;10134;50.952;6.930;2023-04-03T10:34:38;1.30;;;0.70;;
19944;SDS011;10134;50.952;6.930;2023-04-03T10:37:17;3.57;;;0.90;;
19944;SDS011;10134;50.952;6.930;2023-04-03T10:48:02;0.90;;;0.83;;
19944;SDS011;10134;50.952;6.930;2023-04-03T10:53:45;3.10;;;0.90;;
19944;SDS011;10134;50.952;6.930;2023-04-03T10:56:40;2.40;;;0.83;;
19944;SDS011;10134;50.952;6.930;2023-04-03T11:02:00;2.20;;;0.70;;
19944;SDS011;10134;50.952;6.930;2023-04-03T11:04:50;3.57;;;1.10;;
19944;SDS011;10134;50.952;6.930;2023-04-03T11:07:25;2.37;;;0.80;;
19944;SDS011;10134;50.952;6.930;2023-04-03T11:13:10;0.90;;;0.70;;
19944;SDS011;10134;50.952;6.930;2023-04-03T11:15:40;3.20;;;1.37;;
19944;SDS011;10134;50.952;6.930;2023-04-03T11:18:09;0.80;;;0.80;;
19944;SDS011;10134;50.952;6.930;2023-04-03T11:20:41;2.67;;;0.90;;
19944;SDS011;10134;50.952;6.930;2023-04-03T11:23:26;0.90;;;0.60;;
19944;SDS011;10134;50.952;6.930;2023-04-03T11:26:11;1.60;;;0.50;;
19944;SDS011;10134;50.952;6.930;2023-04-03T11:28:44;1.45;;;0.98;;
19944;SDS011;10134;50.952;6.930;2023-04-03T11:36:40;0.73;;;0.60;;
19944;SDS011;10134;50.952;6.930;2023-04-03T11:47:56;1.38;;;0.57;;
19944;SDS011;10134;50.952;6.930;2023-04-03T12:40:18;2.05;;;0.52;;
19944;SDS011;10134;50.952;6.930;2023-04-03T12:51:17;3.72;;;0.95;;
19944;SDS011;10134;50.952;6.930;2023-04-03T12:54:04;1.98;;;0.95;;
19944;SDS011;10134;50.952;6.930;2023-04-03T12:56:42;2.63;;;0.80;;
19944;SDS011;10134;50.952;6.930;2023-04-03T12:59:13;3.15;;;1.00;;
19944;SDS011;10134;50.952;6.930;2023-04-03T13:01:43;2.72;;;0.95;;
19944;SDS011;10134;50.952;6.930;2023-04-03T13:04:19;2.85;;;0.90;;
19944;SDS011;10134;50.952;6.930;2023-04-03T13:06:46;2.78;;;0.85;;
19944;SDS011;10134;50.952;6.930;2023-04-03T13:09:21;1.92;;;0.60;;
19944;SDS011;10134;50.952;6.930;2023-04-03T13:11:58;1.33;;;0.68;;
19944;SDS011;10134;50.952;6.930;2023-04-03T13:14:35;1.23;;;0.80;;
19944;SDS011;10134;50.952;6.930;2023-04-03T13:17:06;1.17;;;0.73;;
19944;SDS011;10134;50.952;6.930;2023-04-03T13:19:40;1.17;;;0.85;;
19944;SDS011;10134;50.952;6.930;2023-04-03T13:25:15;1.08;;;0.90;;
19944;SDS011;10134;50.952;6.930;2023-04-03T13:27:44;1.60;;;0.75;;
19944;SDS011;10134;50.952;6.930;2023-04-03T13:30:23;1.25;;;0.73;;
19944;SDS011;10134;50.952;6.930;2023-04-03T13:32:54;1.98;;;0.95;;
19944;SDS011;10134;50.952;6.930;2023-04-03T13:38:05;1.20;;;0.65;;
19944;SDS011;10134;50.952;6.930;2023-04-03T13:41:05;4.68;;;2.40;;
19944;SDS011;10134;50.952;6.930;2023-04-03T13:43:51;1.65;;;0.82;;
19944;SDS011;10134;50.952;6.930;2023-04-03T13:46:25;5.47;;;1.35;;
19944;SDS011;10134;50.952;6.930;2023-04-03T13:48:55;1.85;;;0.70;;
19944;SDS011;10134;50.952;6.930;2023-04-03T13:51:27;1.85;;;0.90;;
19944;SDS011;10134;50.952;6.930;2023-04-03T13:53:57;2.50;;;0.90;;
19944;SDS011;10134;50.952;6.930;2023-04-03T13:56:29;0.70;;;0.70;;
19944;SDS011;10134;50.952;6.930;2023-04-03T14:01:54;6.57;;;1.88;;
19944;SDS011;10134;50.952;6.930;2023-04-03T14:04:29;1.73;;;0.73;;
19944;SDS011;10134;50.952;6.930;2023-04-03T14:06:58;1.80;;;0.90;;
19944;SDS011;10134;50.952;6.930;2023-04-03T14:09:26;1.92;;;1.00;;
19944;SDS011;10134;50.952;6.930;2023-04-03T14:11:58;4.60;;;1.10;;
19944;SDS011;10134;50.952;6.930;2023-04-03T14:14:32;1.92;;;0.82;;
19944;SDS011;10134;50.952;6.930;2023-04-03T14:17:03;2.83;;;1.10;;
19944;SDS011;10134;50.952;6.930;2023-04-03T14:19:51;2.55;;;1.30;;
19944;SDS011;10134;50.952;6.930;2023-04-03T14:22:24;4.45;;;0.90;;
19944;SDS011;10134;50.952;6.930;2023-04-03T14:24:55;2.17;;;0.90;;
19944;SDS011;10134;50.952;6.930;2023-04-03T14:27:27;3.15;;;0.75;;
19944;SDS011;10134;50.952;6.930;2023-04-03T14:29:57;2.78;;;1.00;;
19944;SDS011;10134;50.952;6.930;2023-04-03T14:32:26;1.00;;;0.80;;
19944;SDS011;10134;50.952;6.930;2023-04-03T14:34:54;3.50;;;0.95;;
19944;SDS011;10134;50.952;6.930;2023-04-03T14:37:24;3.08;;;0.90;;
19944;SDS011;10134;50.952;6.930;2023-04-03T14:39:54;2.08;;;0.70;;
19944;SDS011;10134;50.952;6.930;2023-04-03T14:42:24;1.90;;;0.93;;
19944;SDS011;10134;50.952;6.930;2023-04-03T14:44:53;3.00;;;0.98;;
19944;SDS011;10134;50.952;6.930;2023-04-03T14:47:23;5.72;;;1.05;;
19944;SDS011;10134;50.952;6.930;2023-04-03T14:50:01;2.25;;;0.90;;
19944;SDS011;10134;50.952;6.930;2023-04-03T14:52:32;0.85;;;0.75;;
19944;SDS011;10134;50.952;6.930;2023-04-03T14:55:02;2.63;;;1.10;;
19944;SDS011;10134;50.952;6.930;2023-04-03T14:57:31;2.38;;;1.15;;
19944;SDS011;10134;50.952;6.930;2023-04-03T15:00:00;3.50;;;0.73;;
19944;SDS011;10134;50.952;6.930;2023-04-03T15:02:30;4.13;;;0.80;;
19944;SDS011;10134;50.952;6.930;2023-04-03T15:05:06;1.77;;;0.75;;
19944;SDS011;10134;50.952;6.930;2023-04-03T15:07:36;1.13;;;0.77;;
19944;SDS011;10134;50.952;6.930;2023-04-03T15:12:47;1.67;;;0.68;;
19944;SDS011;10134;50.952;6.930;2023-04-03T15:15:16;3.95;;;0.98;;
19944;SDS011;10134;50.952;6.930;2023-04-03T15:17:44;2.25;;;0.82;;
19944;SDS011;10134;50.952;6.930;2023-04-03T15:20:14;1.63;;;0.82;;
19944;SDS011;10134;50.952;6.930;2023-04-03T15:22:43;1.67;;;0.70;;
19944;SDS011;10134;50.952;6.930;2023-04-03T15:25:10;3.83;;;0.68;;
19944;SDS011;10134;50.952;6.930;2023-04-03T15:27:38;3.40;;;1.00;;
19944;SDS011;10134;50.952;6.930;2023-04-03T15:30:07;1.05;;;0.80;;
19944;SDS011;10134;50.952;6.930;2023-04-03T15:32:39;2.40;;;0.75;;
19944;SDS011;10134;50.952;6.930;2023-04-03T15:35:07;1.85;;;0.80;;
19944;SDS011;10134;50.952;6.930;2023-04-03T15:37:35;2.17;;;1.10;;
19944;SDS011;10134;50.952;6.930;2023-04-03T15:40:03;3.67;;;0.90;;
19944;SDS011;10134;50.952;6.930;2023-04-03T15:42:32;2.78;;;1.15;;
19944;SDS011;10134;50.952;6.930;2023-04-03T15:44:59;5.32;;;1.10;;
19944;SDS011;10134;50.952;6.930;2023-04-03T15:47:27;2.05;;;1.05;;
19944;SDS011;10134;50.952;6.930;2023-04-03T15:49:55;2.90;;;1.15;;
19944;SDS011;10134;50.952;6.930;2023-04-03T15:52:22;1.15;;;0.77;;
19944;SDS011;10134;50.952;6.930;2023-04-03T15:54:50;2.65;;;0.90;;
19944;SDS011;10134;50.952;6.930;2023-04-03T15:57:17;4.35;;;0.80;;
19944;SDS011;10134;50.952;6.930;2023-04-03T15:59:45;3.05;;;1.38;;
19944;SDS011;10134;50.952;6.930;2023-04-03T16:02:12;3.78;;;1.25;;
19944;SDS011;10134;50.952;6.930;2023-04-03T16:04:40;3.60;;;0.70;;
19944;SDS011;10134;50.952;6.930;2023-04-03T16:07:08;2.25;;;1.10;;
19944;SDS011;10134;50.952;6.930;2023-04-03T16:09:35;2.22;;;0.82;;
19944;SDS011;10134;50.952;6.930;2023-04-03T16:12:03;3.08;;;1.02;;
19944;SDS011;10134;50.952;6.930;2023-04-03T16:14:31;1.88;;;0.73;;
19944;SDS011;10134;50.952;6.930;2023-04-03T16:16:58;2.35;;;1.00;;
19944;SDS011;10134;50.952;6.930;2023-04-03T16:19:26;2.15;;;1.13;;
19944;SDS011;10134;50.952;6.930;2023-04-03T16:21:55;1.95;;;0.85;;
19944;SDS011;10134;50.952;6.930;2023-04-03T16:24:23;1.58;;;0.95;;
19944;SDS011;10134;50.952;6.930;2023-04-03T16:26:50;3.88;;;1.08;;
19944;SDS011;10134;50.952;6.930;2023-04-03T16:29:19;2.08;;;0.90;;
19944;SDS011;10134;50.952;6.930;2023-04-03T16:31:47;1.65;;;0.90;;
19944;SDS011;10134;50.952;6.930;2023-04-03T16:34:14;1.88;;;0.90;;
19944;SDS011;10134;50.952;6.930;2023-04-03T16:36:42;3.50;;;1.40;;
19944;SDS011;10134;50.952;6.930;2023-04-03T16:39:10;2.45;;;1.40;;
19944;SDS011;10134;50.952;6.930;2023-04-03T16:41:37;2.75;;;1.08;;
19944;SDS011;10134;50.952;6.930;2023-04-03T16:44:05;2.00;;;1.20;;
19944;SDS011;10134;50.952;6.930;2023-04-03T16:46:34;2.25;;;1.00;;
19944;SDS011;10134;50.952;6.930;2023-04-03T16:49:02;4.95;;;1.25;;
19944;SDS011;10134;50.952;6.930;2023-04-03T16:51:29;3.65;;;1.00;;
19944;SDS011;10134;50.952;6.930;2023-04-03T16:53:58;4.28;;;1.17;;
19944;SDS011;10134;50.952;6.930;2023-04-03T16:56:25;3.83;;;1.27;;
19944;SDS011;10134;50.952;6.930;2023-04-03T16:58:55;5.60;;;1.10;;
19944;SDS011;10134;50.952;6.930;2023-04-03T17:01:23;2.92;;;0.68;;
19944;SDS011;10134;50.952;6.930;2023-04-03T17:03:50;2.60;;;1.33;;
19944;SDS011;10134;50.952;6.930;2023-04-03T17:06:19;1.77;;;0.90;;
19944;SDS011;10134;50.952;6.930;2023-04-03T17:08:48;2.20;;;0.98;;
19944;SDS011;10134;50.952;6.930;2023-04-03T17:11:26;1.42;;;0.90;;
19944;SDS011;10134;50.952;6.930;2023-04-03T17:13:54;2.38;;;1.27;;
19944;SDS011;10134;50.952;6.930;2023-04-03T17:16:22;9.57;;;1.08;;
19944;SDS011;10134;50.952;6.930;2023-04-03T17:18:52;3.75;;;0.80;;
19944;SDS011;10134;50.952;6.930;2023-04-03T17:21:20;3.65;;;1.10;;
19944;SDS011;10134;50.952;6.930;2023-04-03T17:23:53;5.38;;;1.05;;
19944;SDS011;10134;50.952;6.930;2023-04-03T17:26:24;3.45;;;1.05;;